createdAt,value
2018-09-14T00:02:17.080Z,18.90
2018-09-14T00:04:45.877Z,18.90
2018-09-14T00:07:14.669Z,18.90
2018-09-14T00:09:43.470Z,18.90
2018-09-14T00:12:12.266Z,18.90
2018-09-14T00:14:41.109Z,18.90
2018-09-14T00:17:09.918Z,18.90
2018-09-14T00:19:38.856Z,18.90
2018-09-14T00:22:07.815Z,18.90
2018-09-14T00:24:36.630Z,18.90
2018-09-14T00:27:05.445Z,18.90
2018-09-14T00:29:34.235Z,18.90
2018-09-14T00:32:03.040Z,18.90
2018-09-14T00:34:31.838Z,18.90
2018-09-14T00:37:00.704Z,18.90
2018-09-14T00:39:29.515Z,18.90
2018-09-14T00:41:58.616Z,18.90
2018-09-14T00:44:27.459Z,18.90
2018-09-14T00:46:56.296Z,18.90
2018-09-14T00:49:25.093Z,18.80
2018-09-14T00:51:53.882Z,18.80
2018-09-14T00:54:22.666Z,18.80
2018-09-14T00:56:51.481Z,18.80
2018-09-14T00:59:20.275Z,18.80
2018-09-14T01:01:49.098Z,18.80
2018-09-14T01:04:18.816Z,18.80
2018-09-14T01:06:54.277Z,19.20
2018-09-14T01:09:25.151Z,18.70
2018-09-14T01:11:54.610Z,18.70
2018-09-14T01:14:23.495Z,18.70
2018-09-14T01:16:52.314Z,18.70
2018-09-14T01:19:21.118Z,18.70
2018-09-14T01:21:49.972Z,18.70
2018-09-14T01:24:18.916Z,18.70
2018-09-14T01:26:47.743Z,18.70
2018-09-14T01:29:16.559Z,18.70
2018-09-14T01:31:45.359Z,18.70
2018-09-14T01:34:14.426Z,18.70
2018-09-14T01:36:43.226Z,18.70
2018-09-14T01:39:12.970Z,18.70
2018-09-14T01:41:41.813Z,18.70
2018-09-14T01:44:10.639Z,18.70
2018-09-14T01:46:39.665Z,18.70
2018-09-14T01:49:08.578Z,18.70
2018-09-14T01:51:37.586Z,18.60
2018-09-14T01:54:06.394Z,18.70
2018-09-14T01:56:35.197Z,18.70
2018-09-14T01:59:03.993Z,18.70
2018-09-14T02:01:32.811Z,18.70
2018-09-14T02:04:01.625Z,18.70
2018-09-14T02:06:30.831Z,18.70
2018-09-14T02:08:59.922Z,18.70
2018-09-14T02:11:28.760Z,18.70
2018-09-14T02:13:57.702Z,18.70
2018-09-14T02:16:26.530Z,18.70
2018-09-14T02:18:55.313Z,18.80
2018-09-14T02:21:24.124Z,18.80
2018-09-14T02:23:52.951Z,18.80
2018-09-14T02:26:21.796Z,18.80
2018-09-14T02:28:50.590Z,18.80
2018-09-14T02:31:19.846Z,18.80
2018-09-14T02:33:48.741Z,18.80
2018-09-14T02:36:17.586Z,18.80
2018-09-14T02:38:46.392Z,18.80
2018-09-14T02:41:15.187Z,18.80
2018-09-14T02:43:44.001Z,18.80
2018-09-14T02:46:12.831Z,18.80
2018-09-14T02:48:41.652Z,18.80
2018-09-14T02:51:10.450Z,18.80
2018-09-14T02:53:39.550Z,18.80
2018-09-14T02:56:08.396Z,18.80
2018-09-14T02:58:37.256Z,18.80
2018-09-14T03:01:06.060Z,18.80
2018-09-14T03:03:34.867Z,18.80
2018-09-14T03:06:03.674Z,18.80
2018-09-14T03:08:32.943Z,18.80
2018-09-14T03:11:01.745Z,18.80
2018-09-14T03:13:30.556Z,18.80
2018-09-14T03:15:59.777Z,18.80
2018-09-14T03:18:28.610Z,18.80
2018-09-14T03:20:57.419Z,18.80
2018-09-14T03:23:26.241Z,18.80
2018-09-14T03:25:55.029Z,18.70
2018-09-14T03:28:26.707Z,18.80
2018-09-14T03:30:55.621Z,18.70
2018-09-14T03:33:24.436Z,18.80
2018-09-14T03:35:53.246Z,18.80
2018-09-14T03:38:22.362Z,18.80
2018-09-14T03:40:51.157Z,18.80
2018-09-14T03:43:19.952Z,18.80
2018-09-14T03:45:48.778Z,18.80
2018-09-14T03:48:17.575Z,18.80
2018-09-14T03:50:46.363Z,18.80
2018-09-14T03:53:15.174Z,18.80
2018-09-14T03:55:43.984Z,18.80
2018-09-14T03:58:12.826Z,18.80
2018-09-14T04:00:41.748Z,18.80
2018-09-14T04:03:10.566Z,18.80
2018-09-14T04:05:39.381Z,18.80
2018-09-14T04:08:08.314Z,18.80
2018-09-14T04:10:37.721Z,18.80
2018-09-14T04:13:06.636Z,18.80
2018-09-14T04:15:35.957Z,18.80
2018-09-14T04:18:04.850Z,18.80
2018-09-14T04:20:33.719Z,18.80
2018-09-14T04:23:02.685Z,18.80
2018-09-14T04:25:31.478Z,18.80
2018-09-14T04:28:00.493Z,18.80
2018-09-14T04:30:29.354Z,18.80
2018-09-14T04:32:58.170Z,18.80
2018-09-14T04:35:26.984Z,18.80
2018-09-14T04:37:55.858Z,18.80
2018-09-14T04:40:24.684Z,18.80
2018-09-14T04:42:53.470Z,18.80
2018-09-14T04:45:22.754Z,18.90
2018-09-14T04:47:51.534Z,18.80
2018-09-14T04:50:20.376Z,18.80
2018-09-14T04:52:49.161Z,18.80
2018-09-14T04:55:17.950Z,18.80
2018-09-14T04:57:46.755Z,18.80
2018-09-14T05:00:15.586Z,18.90
2018-09-14T05:02:44.416Z,18.90
2018-09-14T05:05:13.278Z,18.90
2018-09-14T05:07:42.241Z,18.90
2018-09-14T05:10:11.037Z,18.90
2018-09-14T05:12:40.321Z,18.90
2018-09-14T05:15:09.155Z,19.00
2018-09-14T05:17:37.952Z,19.00
2018-09-14T05:20:08.101Z,19.00
2018-09-14T05:22:36.913Z,19.00
2018-09-14T05:25:07.056Z,19.00
2018-09-14T05:27:35.766Z,19.00
2018-09-14T05:30:04.733Z,19.00
2018-09-14T05:32:33.618Z,19.00
2018-09-14T05:35:02.440Z,19.00
2018-09-14T05:37:31.243Z,19.10
2018-09-14T05:40:00.478Z,19.10
2018-09-14T05:42:29.278Z,19.10
2018-09-14T05:44:58.135Z,19.10
2018-09-14T05:47:26.958Z,19.20
2018-09-14T05:49:55.764Z,19.20
2018-09-14T05:52:24.857Z,19.20
2018-09-14T05:54:53.658Z,19.20
2018-09-14T05:57:22.503Z,19.30
2018-09-14T05:59:51.338Z,19.30
2018-09-14T06:02:20.181Z,19.40
2018-09-14T06:04:49.089Z,19.50
2018-09-14T06:07:17.973Z,19.50
2018-09-14T06:09:46.778Z,19.50
2018-09-14T06:12:15.606Z,19.60
2018-09-14T06:14:45.570Z,19.60
2018-09-14T06:17:15.654Z,19.70
2018-09-14T06:19:44.514Z,19.70
2018-09-14T06:22:13.338Z,19.80
2018-09-14T06:24:42.162Z,19.80
2018-09-14T06:27:11.031Z,19.90
2018-09-14T06:29:39.904Z,19.90
2018-09-14T06:32:08.707Z,20.00
2018-09-14T06:34:37.514Z,20.00
2018-09-14T06:37:06.542Z,20.10
2018-09-14T06:39:35.400Z,20.10
2018-09-14T06:42:04.242Z,20.20
2018-09-14T06:44:33.086Z,20.20
2018-09-14T06:47:01.896Z,20.30
2018-09-14T06:49:30.729Z,20.30
2018-09-14T06:51:59.591Z,20.40
2018-09-14T06:54:28.454Z,20.40
2018-09-14T06:56:57.301Z,20.40
2018-09-14T06:59:26.600Z,20.50
2018-09-14T07:01:55.412Z,20.50
2018-09-14T07:04:24.216Z,20.60
2018-09-14T07:06:53.079Z,20.60
2018-09-14T07:09:21.897Z,20.70
2018-09-14T07:11:50.718Z,20.70
2018-09-14T07:14:19.562Z,20.70
2018-09-14T07:16:48.773Z,20.80
2018-09-14T07:19:17.599Z,20.80
2018-09-14T07:21:46.638Z,20.90
2018-09-14T07:24:15.407Z,20.90
2018-09-14T07:26:44.246Z,20.90
2018-09-14T07:29:13.182Z,20.90
2018-09-14T07:31:41.985Z,21.00
2018-09-14T07:34:10.731Z,21.00
2018-09-14T07:36:39.582Z,21.00
2018-09-14T07:39:10.017Z,21.10
2018-09-14T07:41:38.833Z,21.10
2018-09-14T07:44:08.113Z,21.10
2018-09-14T07:46:36.894Z,21.20
2018-09-14T07:49:05.806Z,21.30
2018-09-14T07:51:34.601Z,21.30
2018-09-14T07:54:03.390Z,21.40
2018-09-14T07:56:32.228Z,21.40
2018-09-14T07:59:01.159Z,21.40
2018-09-14T08:01:29.951Z,21.50
2018-09-14T08:03:58.830Z,21.50
2018-09-14T08:06:28.114Z,21.60
2018-09-14T08:08:56.901Z,21.60
2018-09-14T08:11:25.706Z,21.60
2018-09-14T08:13:54.745Z,21.70
2018-09-14T08:16:23.588Z,21.70
2018-09-14T08:18:52.857Z,21.80
2018-09-14T08:21:21.730Z,21.90
2018-09-14T08:23:50.478Z,21.90
2018-09-14T08:26:19.291Z,21.90
2018-09-14T08:28:48.522Z,22.00
2018-09-14T08:31:17.390Z,22.00
2018-09-14T08:33:46.202Z,22.10
2018-09-14T08:36:15.115Z,22.20
2018-09-14T08:38:43.926Z,22.20
2018-09-14T08:41:12.737Z,22.30
2018-09-14T08:43:41.685Z,22.30
2018-09-14T08:46:10.470Z,22.40
2018-09-14T08:48:39.266Z,22.50
2018-09-14T08:51:09.195Z,22.50
2018-09-14T08:53:38.112Z,22.60
2018-09-14T08:56:06.957Z,22.60
2018-09-14T08:58:35.763Z,22.70
2018-09-14T09:01:04.649Z,22.70
2018-09-14T09:03:33.448Z,22.80
2018-09-14T09:06:02.271Z,22.80
2018-09-14T09:08:31.078Z,22.90
2018-09-14T09:10:59.941Z,22.90
2018-09-14T09:13:29.197Z,22.90
2018-09-14T09:15:59.054Z,22.90
2018-09-14T09:18:27.958Z,22.90
2018-09-14T09:20:57.241Z,23.00
2018-09-14T09:23:26.130Z,23.00
2018-09-14T09:25:54.934Z,23.00
2018-09-14T09:28:23.773Z,23.10
2018-09-14T09:30:52.625Z,23.20
2018-09-14T09:33:22.063Z,23.30
2018-09-14T09:35:51.074Z,23.30
2018-09-14T09:38:19.867Z,23.40
2018-09-14T09:40:48.676Z,23.50
2018-09-14T09:43:17.602Z,23.50
2018-09-14T09:45:46.530Z,23.60
2018-09-14T09:48:15.357Z,23.60
2018-09-14T09:50:44.203Z,23.60
2018-09-14T09:53:12.998Z,23.50
2018-09-14T09:55:41.811Z,23.50
2018-09-14T09:58:10.980Z,23.50
2018-09-14T10:00:42.949Z,23.40
2018-09-14T10:03:17.061Z,23.40
2018-09-14T10:05:51.084Z,23.40
2018-09-14T10:08:19.902Z,23.40
2018-09-14T10:10:48.759Z,23.30
2018-09-14T10:13:17.572Z,23.30
2018-09-14T10:15:46.726Z,23.30
2018-09-14T10:18:15.511Z,23.30
2018-09-14T10:20:44.362Z,23.30
2018-09-14T10:23:13.613Z,23.30
2018-09-14T10:25:42.448Z,23.30
2018-09-14T10:28:11.314Z,23.30
2018-09-14T10:30:40.127Z,23.40
2018-09-14T10:33:08.954Z,23.40
2018-09-14T10:35:37.754Z,23.40
2018-09-14T10:38:07.199Z,23.40
2018-09-14T10:40:36.005Z,23.50
2018-09-14T10:43:04.754Z,23.50
2018-09-14T10:45:33.595Z,23.50
2018-09-14T10:48:02.394Z,23.50
2018-09-14T10:50:31.262Z,23.50
2018-09-14T10:53:00.082Z,23.50
2018-09-14T10:55:29.006Z,23.50
2018-09-14T10:57:57.789Z,23.50
2018-09-14T11:00:26.718Z,23.50
2018-09-14T11:02:55.512Z,23.50
2018-09-14T11:05:24.311Z,23.50
2018-09-14T11:07:53.129Z,23.60
2018-09-14T11:10:21.938Z,23.60
2018-09-14T11:12:50.773Z,23.60
2018-09-14T11:15:19.697Z,23.70
2018-09-14T11:17:48.507Z,23.70
2018-09-14T11:20:17.318Z,23.80
2018-09-14T11:22:46.466Z,23.80
2018-09-14T11:25:15.878Z,23.80
2018-09-14T11:27:44.678Z,23.80
2018-09-14T11:30:13.460Z,24.10
2018-09-14T11:32:42.277Z,23.90
2018-09-14T11:35:11.106Z,24.00
2018-09-14T11:37:39.953Z,24.00
2018-09-14T11:40:08.875Z,24.10
2018-09-14T11:42:40.741Z,24.20
2018-09-14T11:45:10.023Z,24.20
2018-09-14T11:47:38.790Z,24.30
2018-09-14T11:50:08.473Z,24.30
2018-09-14T11:52:37.326Z,24.40
2018-09-14T11:55:06.184Z,24.40
2018-09-14T11:57:34.990Z,24.50
2018-09-14T12:00:03.810Z,24.60
2018-09-14T12:02:32.624Z,24.60
2018-09-14T12:05:01.418Z,24.60
2018-09-14T12:07:34.807Z,24.60
2018-09-14T12:10:03.625Z,24.70
2018-09-14T12:12:32.547Z,24.70
2018-09-14T12:15:01.894Z,24.70
2018-09-14T12:17:30.733Z,24.70
2018-09-14T12:19:59.619Z,24.70
2018-09-14T12:22:28.426Z,24.70
2018-09-14T12:24:57.230Z,24.80
2018-09-14T12:27:26.306Z,24.80
2018-09-14T12:29:55.446Z,24.80
2018-09-14T12:32:24.234Z,24.80
2018-09-14T12:34:53.034Z,24.80
2018-09-14T12:37:21.836Z,24.80
2018-09-14T12:39:50.646Z,24.90
2018-09-14T12:42:19.437Z,24.90
2018-09-14T12:44:48.255Z,24.90
2018-09-14T12:47:17.077Z,25.00
2018-09-14T12:49:45.875Z,25.00
2018-09-14T12:52:14.991Z,25.00
2018-09-14T12:54:43.773Z,25.10
2018-09-14T12:57:12.589Z,25.10
2018-09-14T12:59:41.434Z,25.10
2018-09-14T13:02:10.255Z,25.20
2018-09-14T13:04:39.050Z,25.20
2018-09-14T13:07:07.933Z,25.20
2018-09-14T13:09:37.326Z,25.10
2018-09-14T13:12:06.190Z,25.10
2018-09-14T13:14:35.322Z,25.10
2018-09-14T13:17:04.077Z,25.10
2018-09-14T13:19:32.883Z,25.00
2018-09-14T13:22:01.693Z,25.00
2018-09-14T13:24:31.183Z,25.00
2018-09-14T13:27:00.033Z,24.90
2018-09-14T13:29:29.391Z,24.90
2018-09-14T13:31:58.210Z,24.80
2018-09-14T13:34:27.018Z,24.80
2018-09-14T13:36:56.121Z,24.70
2018-09-14T13:39:25.018Z,24.70
2018-09-14T13:41:53.827Z,24.60
2018-09-14T13:44:22.640Z,24.60
2018-09-14T13:46:51.498Z,24.60
2018-09-14T13:49:20.318Z,24.60
2018-09-14T13:51:49.128Z,24.60
2018-09-14T13:54:17.997Z,24.70
2018-09-14T13:56:46.794Z,24.70
2018-09-14T13:59:15.914Z,24.80
2018-09-14T14:01:44.935Z,24.80
2018-09-14T14:04:13.621Z,24.90
2018-09-14T14:06:42.601Z,24.90
2018-09-14T14:09:12.714Z,24.90
2018-09-14T14:11:41.613Z,24.90
2018-09-14T14:14:11.247Z,24.90
2018-09-14T14:16:40.139Z,24.90
2018-09-14T14:19:09.410Z,24.90
2018-09-14T14:21:38.610Z,24.90
2018-09-14T14:24:07.515Z,24.90
2018-09-14T14:26:36.331Z,24.90
2018-09-14T14:29:05.213Z,24.90
2018-09-14T14:31:34.298Z,24.90
2018-09-14T14:34:03.090Z,24.90
2018-09-14T14:36:31.907Z,24.90
2018-09-14T14:39:00.717Z,24.90
2018-09-14T14:41:29.709Z,24.80
2018-09-14T14:43:58.753Z,24.90
2018-09-14T14:46:27.628Z,24.90
2018-09-14T14:48:56.421Z,24.80
2018-09-14T14:51:25.250Z,24.80
2018-09-14T14:53:54.154Z,24.80
2018-09-14T14:56:22.974Z,24.80
2018-09-14T14:58:51.806Z,24.80
2018-09-14T15:01:20.670Z,24.90
2018-09-14T15:03:49.520Z,24.90
2018-09-14T15:06:18.644Z,24.90
2018-09-14T15:08:47.476Z,25.00
2018-09-14T15:11:16.299Z,25.00
2018-09-14T15:13:45.214Z,25.10
2018-09-14T15:16:14.018Z,25.10
2018-09-14T15:18:43.029Z,25.10
2018-09-14T15:21:11.837Z,25.10
2018-09-14T15:23:40.638Z,25.10
2018-09-14T15:26:09.461Z,25.20
2018-09-14T15:28:38.449Z,25.10
2018-09-14T15:31:07.318Z,25.10
2018-09-14T15:33:36.669Z,25.10
2018-09-14T15:36:05.562Z,25.10
2018-09-14T15:38:34.404Z,25.10
2018-09-14T15:41:03.281Z,25.00
2018-09-14T15:43:32.116Z,25.10
2018-09-14T15:46:00.963Z,25.00
2018-09-14T15:48:29.760Z,25.00
2018-09-14T15:50:58.744Z,25.00
2018-09-14T15:53:27.594Z,25.00
2018-09-14T15:55:56.393Z,25.00
2018-09-14T15:58:25.241Z,24.90
2018-09-14T16:00:54.054Z,24.90
2018-09-14T16:03:22.916Z,24.80
2018-09-14T16:05:52.149Z,24.80
2018-09-14T16:08:21.002Z,24.70
2018-09-14T16:10:49.810Z,24.70
2018-09-14T16:13:19.004Z,24.70
2018-09-14T16:15:47.814Z,24.70
2018-09-14T16:18:16.621Z,24.20
2018-09-14T16:20:45.494Z,24.60
2018-09-14T16:23:14.350Z,24.60
2018-09-14T16:25:43.153Z,24.60
2018-09-14T16:28:12.026Z,24.50
2018-09-14T16:30:40.837Z,24.50
2018-09-14T16:33:09.649Z,24.50
2018-09-14T16:35:38.976Z,24.50
2018-09-14T16:38:07.786Z,24.40
2018-09-14T16:40:36.718Z,24.40
2018-09-14T16:43:05.649Z,24.40
2018-09-14T16:45:34.540Z,24.30
2018-09-14T16:48:03.361Z,24.30
2018-09-14T16:50:32.331Z,24.30
2018-09-14T16:53:01.109Z,24.30
2018-09-14T16:55:29.886Z,24.20
2018-09-14T16:57:58.960Z,24.20
2018-09-14T17:00:27.811Z,24.10
2018-09-14T17:02:56.622Z,24.10
2018-09-14T17:05:25.485Z,24.00
2018-09-14T17:07:54.305Z,24.00
2018-09-14T17:10:23.117Z,23.90
2018-09-14T17:12:51.933Z,23.90
2018-09-14T17:15:20.761Z,23.80
2018-09-14T17:17:49.571Z,23.70
2018-09-14T17:20:18.598Z,23.70
2018-09-14T17:22:47.646Z,23.60
2018-09-14T17:25:16.468Z,23.60
2018-09-14T17:27:45.422Z,23.50
2018-09-14T17:30:14.250Z,23.40
2018-09-14T17:32:43.046Z,23.40
2018-09-14T17:35:12.093Z,23.30
2018-09-14T17:37:42.218Z,23.20
2018-09-14T17:40:11.094Z,23.10
2018-09-14T17:42:40.201Z,23.10
2018-09-14T17:45:09.064Z,23.00
2018-09-14T17:47:37.974Z,22.90
2018-09-14T17:50:08.025Z,22.80
2018-09-14T17:52:36.833Z,22.80
2018-09-14T17:55:06.771Z,22.70
2018-09-14T17:57:35.664Z,22.60
2018-09-14T18:00:04.614Z,22.60
2018-09-14T18:02:33.436Z,22.50
2018-09-14T18:05:02.693Z,22.50
2018-09-14T18:07:31.566Z,22.40
2018-09-14T18:10:00.470Z,22.30
2018-09-14T18:12:29.373Z,22.30
2018-09-14T18:14:58.341Z,22.30
2018-09-14T18:17:27.154Z,22.20
2018-09-14T18:19:56.131Z,22.20
2018-09-14T18:22:24.935Z,22.20
2018-09-14T18:24:53.749Z,22.20
2018-09-14T18:27:22.731Z,22.20
2018-09-14T18:29:51.590Z,22.10
2018-09-14T18:32:20.389Z,22.10
2018-09-14T18:34:49.334Z,22.10
2018-09-14T18:37:18.145Z,22.10
2018-09-14T18:39:47.278Z,22.00
2018-09-14T18:42:16.132Z,22.00
2018-09-14T18:44:44.932Z,22.00
2018-09-14T18:47:13.841Z,21.90
2018-09-14T18:49:43.034Z,21.90
2018-09-14T18:52:11.913Z,21.90
2018-09-14T18:54:40.705Z,21.80
2018-09-14T18:57:09.537Z,21.80
2018-09-14T18:59:38.353Z,21.70
2018-09-14T19:02:07.286Z,21.70
2018-09-14T19:04:36.137Z,21.60
2018-09-14T19:07:04.954Z,21.50
2018-09-14T19:09:33.765Z,21.50
2018-09-14T19:12:02.841Z,21.40
2018-09-14T19:14:31.654Z,21.40
2018-09-14T19:17:00.467Z,21.30
2018-09-14T19:19:35.638Z,21.20
2018-09-14T19:22:04.617Z,21.20
2018-09-14T19:24:33.481Z,21.10
2018-09-14T19:27:02.309Z,21.10
2018-09-14T19:29:31.137Z,21.00
2018-09-14T19:31:59.961Z,20.90
2018-09-14T19:34:29.309Z,20.90
2018-09-14T19:36:58.128Z,20.90
2018-09-14T19:39:26.958Z,20.80
2018-09-14T19:41:56.269Z,20.80
2018-09-14T19:44:25.161Z,20.70
2018-09-14T19:46:53.898Z,20.70
2018-09-14T19:49:22.757Z,20.60
2018-09-14T19:51:51.775Z,20.60
2018-09-14T19:54:20.681Z,20.50
2018-09-14T19:56:50.025Z,20.50
2018-09-14T19:59:18.863Z,20.50
2018-09-14T20:01:47.686Z,20.40
2018-09-14T20:04:16.529Z,20.40
2018-09-14T20:06:45.337Z,20.30
2018-09-14T20:09:18.277Z,20.30
2018-09-14T20:11:47.153Z,20.30
2018-09-14T20:14:15.918Z,20.20
2018-09-14T20:16:44.734Z,20.20
2018-09-14T20:19:13.685Z,20.20
2018-09-14T20:21:42.505Z,20.20
2018-09-14T20:24:11.378Z,20.10
2018-09-14T20:26:40.242Z,20.10
2018-09-14T20:29:09.046Z,20.10
2018-09-14T20:31:37.894Z,20.00
2018-09-14T20:34:06.789Z,20.00
2018-09-14T20:36:35.658Z,20.00
2018-09-14T20:39:06.273Z,20.00
2018-09-14T20:41:35.410Z,19.90
2018-09-14T20:44:04.716Z,19.90
2018-09-14T20:46:33.645Z,19.90
2018-09-14T20:49:02.475Z,19.90
2018-09-14T20:51:31.260Z,19.90
2018-09-14T20:54:00.233Z,19.90
2018-09-14T20:56:29.038Z,20.00
2018-09-14T20:58:57.854Z,20.00
2018-09-14T21:01:26.671Z,20.00
2018-09-14T21:03:55.694Z,20.00
2018-09-14T21:06:31.288Z,20.10
2018-09-14T21:09:00.111Z,20.10
2018-09-14T21:11:28.919Z,20.20
2018-09-14T21:13:57.774Z,20.20
2018-09-14T21:16:26.593Z,20.20
2018-09-14T21:18:55.388Z,20.30
2018-09-14T21:21:24.197Z,20.30
2018-09-14T21:23:53.209Z,20.30
2018-09-14T21:26:22.020Z,20.30
2018-09-14T21:28:50.849Z,20.30
2018-09-14T21:31:19.670Z,20.30
2018-09-14T21:33:48.486Z,20.40
2018-09-14T21:36:17.302Z,20.30
2018-09-14T21:38:52.793Z,20.40
2018-09-14T21:41:21.616Z,20.40
2018-09-14T21:43:50.473Z,20.40
2018-09-14T21:46:20.108Z,20.30
2018-09-14T21:48:48.949Z,20.40
2018-09-14T21:51:17.794Z,20.30
2018-09-14T21:53:46.665Z,20.30
2018-09-14T21:56:15.438Z,20.30
2018-09-14T21:58:44.269Z,20.30
2018-09-14T22:01:14.603Z,20.30
2018-09-14T22:03:44.911Z,20.30
2018-09-14T22:06:13.770Z,20.30
2018-09-14T22:08:43.115Z,20.20
2018-09-14T22:11:12.000Z,20.20
2018-09-14T22:13:40.781Z,20.20
2018-09-14T22:16:09.586Z,20.20
2018-09-14T22:18:38.425Z,20.20
2018-09-14T22:21:07.754Z,20.20
2018-09-14T22:23:36.592Z,20.20
2018-09-14T22:26:05.390Z,20.20
2018-09-14T22:28:34.426Z,20.30
2018-09-14T22:31:03.723Z,20.30
2018-09-14T22:33:33.013Z,20.30
2018-09-14T22:36:01.834Z,20.30
2018-09-14T22:38:30.669Z,20.30
2018-09-14T22:40:59.465Z,20.30
2018-09-14T22:43:28.278Z,20.30
2018-09-14T22:45:57.138Z,20.30
2018-09-14T22:48:26.516Z,20.40
2018-09-14T22:50:55.307Z,20.40
2018-09-14T22:53:25.265Z,20.40
2018-09-14T22:55:54.082Z,20.40
2018-09-14T22:58:22.880Z,20.40
2018-09-14T23:00:57.088Z,20.50
2018-09-14T23:03:25.876Z,20.50
2018-09-14T23:05:54.673Z,20.50
2018-09-14T23:08:23.469Z,20.50
2018-09-14T23:10:52.249Z,20.50
2018-09-14T23:13:21.027Z,20.50
2018-09-14T23:15:55.977Z,20.60
2018-09-14T23:18:24.852Z,20.60
2018-09-14T23:20:53.645Z,20.60
2018-09-14T23:23:22.710Z,20.60
2018-09-14T23:25:52.322Z,20.60
2018-09-14T23:28:21.231Z,20.60
2018-09-14T23:30:50.164Z,20.60
2018-09-14T23:33:18.957Z,20.60
2018-09-14T23:35:47.796Z,20.60
2018-09-14T23:38:16.777Z,20.60
2018-09-14T23:40:45.643Z,20.70
2018-09-14T23:43:14.369Z,20.70
2018-09-14T23:45:43.198Z,20.70
2018-09-14T23:48:12.019Z,20.70
2018-09-14T23:50:41.454Z,20.70
2018-09-14T23:53:10.334Z,20.70
2018-09-14T23:55:39.185Z,20.70
2018-09-14T23:58:08.010Z,20.70
